createdAt,value
2022-12-10T00:02:08.018Z,71.47
2022-12-10T00:04:43.034Z,71.57
2022-12-10T00:07:17.995Z,71.53
2022-12-10T00:09:50.965Z,71.40
2022-12-10T00:12:23.224Z,71.58
2022-12-10T00:14:55.669Z,71.29
2022-12-10T00:17:28.069Z,71.40
2022-12-10T00:20:00.408Z,71.24
2022-12-10T00:22:34.626Z,71.20
2022-12-10T00:25:07.531Z,71.25
2022-12-10T00:27:39.729Z,71.35
2022-12-10T00:30:13.654Z,71.29
2022-12-10T00:32:45.874Z,71.42
2022-12-10T00:35:18.350Z,71.43
2022-12-10T00:37:51.066Z,71.26
2022-12-10T00:40:23.833Z,71.08
2022-12-10T00:42:56.106Z,71.56
2022-12-10T00:45:28.464Z,71.64
2022-12-10T00:48:00.588Z,71.65
2022-12-10T00:50:32.971Z,71.58
2022-12-10T00:53:05.513Z,71.67
2022-12-10T00:55:37.609Z,71.77
2022-12-10T00:58:09.686Z,71.86
2022-12-10T01:00:41.983Z,71.65
2022-12-10T01:03:14.150Z,71.71
2022-12-10T01:05:46.325Z,71.70
2022-12-10T01:08:19.519Z,71.62
2022-12-10T01:10:57.407Z,71.42
2022-12-10T01:13:29.428Z,71.45
2022-12-10T01:16:04.649Z,71.40
2022-12-10T01:18:36.918Z,71.52
2022-12-10T01:21:11.350Z,71.62
2022-12-10T01:23:45.487Z,71.75
2022-12-10T01:26:20.412Z,71.82
2022-12-10T01:28:56.244Z,71.76
2022-12-10T01:31:31.249Z,71.67
2022-12-10T01:34:06.562Z,71.88
2022-12-10T01:36:38.253Z,71.74
2022-12-10T01:39:12.543Z,71.68
2022-12-10T01:41:47.304Z,71.47
2022-12-10T01:45:01.134Z,71.39
2022-12-10T01:47:34.001Z,71.40
2022-12-10T01:50:08.468Z,71.32
2022-12-10T01:52:42.940Z,71.29
2022-12-10T01:55:42.910Z,71.22
2022-12-10T01:58:17.131Z,71.60
2022-12-10T02:01:07.534Z,71.36
2022-12-10T02:03:52.657Z,71.25
2022-12-10T02:06:34.392Z,71.47
2022-12-10T02:09:15.657Z,71.24
2022-12-10T02:11:55.995Z,71.24
2022-12-10T02:14:43.957Z,70.87
2022-12-10T02:17:20.422Z,70.99
2022-12-10T02:20:04.015Z,71.21
2022-12-10T02:22:40.555Z,71.07
2022-12-10T02:25:16.447Z,71.32
2022-12-10T02:27:54.861Z,71.08
2022-12-10T02:30:27.371Z,70.72
2022-12-10T02:33:01.708Z,70.53
2022-12-10T02:35:39.693Z,70.61
2022-12-10T02:38:17.773Z,70.59
2022-12-10T02:40:55.394Z,70.68
2022-12-10T02:43:32.267Z,70.85
2022-12-10T02:46:07.673Z,70.99
2022-12-10T02:48:42.451Z,70.91
2022-12-10T02:51:14.811Z,70.25
2022-12-10T02:53:48.306Z,70.26
2022-12-10T02:56:29.293Z,69.71
2022-12-10T02:59:15.488Z,69.90
2022-12-10T03:02:01.733Z,69.84
2022-12-10T03:04:41.818Z,69.62
2022-12-10T03:07:21.111Z,69.18
2022-12-10T03:09:58.969Z,69.25
2022-12-10T03:12:35.022Z,69.50
2022-12-10T03:15:11.670Z,69.67
2022-12-10T03:17:46.790Z,69.51
2022-12-10T03:20:19.589Z,69.71
2022-12-10T03:22:53.076Z,69.92
2022-12-10T03:25:27.971Z,69.94
2022-12-10T03:28:01.503Z,69.61
2022-12-10T03:30:38.347Z,69.39
2022-12-10T03:33:10.840Z,69.42
2022-12-10T03:35:43.353Z,69.03
2022-12-10T03:38:16.350Z,68.66
2022-12-10T03:40:50.860Z,68.46
2022-12-10T03:43:24.698Z,68.83
2022-12-10T03:45:57.040Z,68.99
2022-12-10T03:48:29.473Z,69.09
2022-12-10T03:51:01.628Z,69.26
2022-12-10T03:53:34.521Z,69.14
2022-12-10T03:56:06.824Z,68.78
2022-12-10T03:58:39.929Z,68.50
2022-12-10T04:01:12.256Z,68.50
2022-12-10T04:03:46.253Z,68.31
2022-12-10T04:06:20.817Z,68.09
2022-12-10T04:08:58.623Z,67.85
2022-12-10T04:11:31.650Z,67.98
2022-12-10T04:14:23.592Z,67.84
2022-12-10T04:16:56.031Z,67.65
2022-12-10T04:19:28.783Z,67.64
2022-12-10T04:22:18.760Z,67.51
2022-12-10T04:25:08.778Z,67.73
2022-12-10T04:27:42.441Z,67.60
2022-12-10T04:30:15.333Z,67.39
2022-12-10T04:32:47.385Z,67.37
2022-12-10T04:35:20.060Z,67.06
2022-12-10T04:37:52.199Z,67.00
2022-12-10T04:40:24.361Z,67.01
2022-12-10T04:42:56.593Z,67.13
2022-12-10T04:45:28.634Z,66.94
2022-12-10T04:48:00.943Z,67.11
2022-12-10T04:50:33.636Z,66.77
2022-12-10T04:53:06.179Z,66.55
2022-12-10T04:55:38.548Z,66.74
2022-12-10T04:58:10.580Z,66.37
2022-12-10T05:00:43.178Z,66.11
2022-12-10T05:03:15.450Z,66.43
2022-12-10T05:05:47.520Z,66.86
2022-12-10T05:08:21.705Z,66.72
2022-12-10T05:10:54.063Z,66.67
2022-12-10T05:13:26.421Z,66.77
2022-12-10T05:15:59.068Z,66.56
2022-12-10T05:18:31.882Z,66.62
2022-12-10T05:21:06.712Z,66.63
2022-12-10T05:23:38.173Z,66.65
2022-12-10T05:26:12.150Z,66.47
2022-12-10T05:28:46.101Z,66.66
2022-12-10T05:31:20.277Z,66.63
2022-12-10T05:33:53.566Z,66.84
2022-12-10T05:36:29.240Z,66.70
2022-12-10T05:39:01.849Z,66.41
2022-12-10T05:41:39.165Z,66.48
2022-12-10T05:44:12.015Z,66.51
2022-12-10T05:46:44.302Z,66.29
2022-12-10T05:49:16.619Z,66.36
2022-12-10T05:51:53.411Z,66.39
2022-12-10T05:54:25.404Z,66.64
2022-12-10T05:56:58.040Z,66.21
2022-12-10T05:59:30.158Z,66.37
2022-12-10T06:02:03.231Z,66.24
2022-12-10T06:04:37.979Z,66.49
2022-12-10T06:07:11.449Z,66.47
2022-12-10T06:09:44.058Z,66.31
2022-12-10T06:12:16.780Z,66.41
2022-12-10T06:14:49.858Z,66.45
2022-12-10T06:17:24.553Z,66.74
2022-12-10T06:19:58.658Z,66.64
2022-12-10T06:22:30.780Z,66.67
2022-12-10T06:25:03.140Z,66.72
2022-12-10T06:27:35.852Z,66.85
2022-12-10T06:30:11.627Z,66.77
2022-12-10T06:32:47.262Z,66.56
2022-12-10T06:35:22.364Z,66.85
2022-12-10T06:37:56.997Z,66.78
2022-12-10T06:40:27.582Z,66.90
2022-12-10T06:43:00.499Z,66.78
2022-12-10T06:45:32.637Z,66.71
2022-12-10T06:48:07.475Z,66.88
2022-12-10T06:50:39.960Z,67.02
2022-12-10T06:53:12.653Z,66.99
2022-12-10T06:55:45.430Z,66.94
2022-12-10T06:58:18.075Z,67.07
2022-12-10T07:00:51.794Z,66.80
2022-12-10T07:03:23.926Z,66.69
2022-12-10T07:05:58.520Z,67.11
2022-12-10T07:08:31.324Z,67.07
2022-12-10T07:11:07.773Z,67.25
2022-12-10T07:13:40.103Z,67.25
2022-12-10T07:16:17.100Z,67.29
2022-12-10T07:18:52.499Z,67.40
2022-12-10T07:21:27.241Z,67.38
2022-12-10T07:24:01.851Z,67.37
2022-12-10T07:26:35.880Z,67.40
2022-12-10T07:29:09.633Z,67.19
2022-12-10T07:31:42.035Z,67.33
2022-12-10T07:34:14.483Z,67.34
2022-12-10T07:36:46.675Z,67.49
2022-12-10T07:39:19.236Z,67.35
2022-12-10T07:41:53.682Z,67.31
2022-12-10T07:44:27.965Z,67.58
2022-12-10T07:47:00.158Z,67.53
2022-12-10T07:49:32.634Z,67.29
2022-12-10T07:52:05.130Z,67.18
2022-12-10T07:54:37.650Z,67.47
2022-12-10T07:57:10.782Z,67.52
2022-12-10T07:59:43.089Z,67.66
2022-12-10T08:02:15.140Z,67.53
2022-12-10T08:04:47.729Z,67.69
2022-12-10T08:07:20.001Z,67.57
2022-12-10T08:09:52.210Z,67.65
2022-12-10T08:12:24.336Z,67.64
2022-12-10T08:14:56.487Z,67.37
2022-12-10T08:17:28.515Z,67.64
2022-12-10T08:20:00.678Z,67.76
2022-12-10T08:22:35.179Z,67.54
2022-12-10T08:25:08.414Z,67.71
2022-12-10T08:27:40.474Z,67.66
2022-12-10T08:30:14.560Z,67.58
2022-12-10T08:32:47.222Z,66.82
2022-12-10T08:35:19.683Z,66.77
2022-12-10T08:37:51.757Z,66.58
2022-12-10T08:40:23.997Z,66.28
2022-12-10T08:42:57.544Z,66.54
2022-12-10T08:45:29.871Z,66.78
2022-12-10T08:48:02.621Z,66.62
2022-12-10T08:50:34.836Z,66.59
2022-12-10T08:53:07.500Z,66.48
2022-12-10T08:55:48.830Z,66.64
2022-12-10T08:58:22.264Z,66.70
2022-12-10T09:00:54.881Z,66.59
2022-12-10T09:03:27.038Z,66.55
2022-12-10T09:06:03.421Z,66.75
2022-12-10T09:08:36.152Z,66.32
2022-12-10T09:11:13.744Z,66.45
2022-12-10T09:13:46.776Z,66.62
2022-12-10T09:16:19.501Z,66.37
2022-12-10T09:18:51.573Z,66.17
2022-12-10T09:21:24.112Z,66.10
2022-12-10T09:23:56.591Z,66.21
2022-12-10T09:26:29.430Z,66.33
2022-12-10T09:29:01.816Z,66.46
2022-12-10T09:31:34.514Z,66.62
2022-12-10T09:34:06.695Z,66.29
2022-12-10T09:36:39.514Z,66.51
2022-12-10T09:39:11.886Z,66.13
2022-12-10T09:42:12.836Z,66.41
2022-12-10T09:44:56.033Z,66.35
2022-12-10T09:47:34.382Z,65.82
2022-12-10T09:50:18.903Z,66.01
2022-12-10T09:52:55.620Z,66.47
2022-12-10T09:55:34.351Z,66.01
2022-12-10T09:58:11.899Z,65.53
2022-12-10T10:00:48.282Z,65.46
2022-12-10T10:03:20.837Z,65.04
2022-12-10T10:05:55.132Z,65.61
2022-12-10T10:08:33.945Z,65.32
2022-12-10T10:11:13.178Z,65.11
2022-12-10T10:13:49.693Z,65.49
2022-12-10T10:16:26.516Z,65.41
2022-12-10T10:19:02.646Z,65.19
2022-12-10T10:21:38.449Z,65.51
2022-12-10T10:24:15.720Z,65.45
2022-12-10T10:26:49.049Z,64.81
2022-12-10T10:29:27.717Z,64.88
2022-12-10T10:32:15.846Z,64.81
2022-12-10T10:34:53.938Z,65.16
2022-12-10T10:37:30.083Z,64.84
2022-12-10T10:40:03.000Z,64.64
2022-12-10T10:42:40.600Z,64.17
2022-12-10T10:45:39.181Z,64.08
2022-12-10T10:48:15.986Z,64.53
2022-12-10T10:50:51.814Z,64.52
2022-12-10T10:53:43.766Z,63.99
2022-12-10T10:56:19.714Z,63.99
2022-12-10T10:58:58.172Z,64.24
2022-12-10T11:01:46.628Z,64.05
2022-12-10T11:04:20.357Z,63.82
2022-12-10T11:06:57.977Z,64.06
2022-12-10T11:09:34.681Z,64.39
2022-12-10T11:12:23.132Z,64.15
2022-12-10T11:14:55.464Z,63.85
2022-12-10T11:17:29.773Z,64.02
2022-12-10T11:20:17.326Z,64.36
2022-12-10T11:22:55.380Z,63.79
2022-12-10T11:25:40.445Z,63.35
2022-12-10T11:28:19.192Z,62.97
2022-12-10T11:31:01.087Z,63.29
2022-12-10T11:33:42.489Z,63.41
2022-12-10T11:36:29.568Z,63.15
2022-12-10T11:39:12.545Z,63.60
2022-12-10T11:41:51.873Z,63.71
2022-12-10T11:44:36.181Z,63.72
2022-12-10T11:47:38.235Z,63.65
2022-12-10T11:50:23.275Z,63.91
2022-12-10T11:53:10.123Z,64.09
2022-12-10T11:55:56.123Z,64.17
2022-12-10T11:58:48.817Z,63.76
2022-12-10T12:01:34.444Z,63.62
2022-12-10T12:04:39.563Z,63.85
2022-12-10T12:07:29.249Z,63.93
2022-12-10T12:10:53.493Z,63.93
2022-12-10T12:13:31.853Z,63.68
2022-12-10T12:16:09.572Z,63.80
2022-12-10T12:18:50.660Z,63.77
2022-12-10T12:21:23.175Z,64.05
2022-12-10T12:24:04.251Z,64.05
2022-12-10T12:26:41.255Z,63.71
2022-12-10T12:29:22.361Z,64.23
2022-12-10T12:32:03.644Z,64.60
2022-12-10T12:34:53.854Z,64.54
2022-12-10T12:37:37.142Z,64.03
2022-12-10T12:40:16.754Z,63.80
2022-12-10T12:42:57.220Z,64.25
2022-12-10T12:45:36.371Z,64.03
2022-12-10T12:48:19.016Z,63.97
2022-12-10T12:50:56.235Z,63.94
2022-12-10T12:53:34.820Z,63.92
2022-12-10T12:56:13.497Z,64.17
2022-12-10T12:59:03.138Z,63.89
2022-12-10T13:01:44.938Z,63.90
2022-12-10T13:04:18.356Z,63.86
2022-12-10T13:07:28.760Z,64.23
2022-12-10T13:10:24.913Z,64.39
2022-12-10T13:13:25.077Z,64.07
2022-12-10T13:15:57.732Z,64.20
2022-12-10T13:22:57.036Z,64.27
2022-12-10T13:25:57.004Z,63.94
2022-12-10T13:28:53.320Z,63.72
2022-12-10T13:31:40.482Z,64.20
2022-12-10T13:34:35.119Z,63.97
2022-12-10T13:37:32.729Z,63.93
2022-12-10T13:40:16.834Z,63.99
2022-12-10T13:43:15.477Z,63.75
2022-12-10T13:45:48.987Z,63.91
2022-12-10T13:48:28.512Z,64.14
2022-12-10T13:51:13.842Z,64.05
2022-12-10T13:53:56.263Z,63.89
2022-12-10T13:56:35.422Z,64.26
2022-12-10T13:59:22.106Z,63.82
2022-12-10T14:02:13.079Z,64.06
2022-12-10T14:05:02.564Z,63.89
2022-12-10T14:07:36.580Z,63.94
2022-12-10T14:10:19.288Z,64.05
2022-12-10T14:12:51.978Z,64.04
2022-12-10T14:15:27.381Z,64.17
2022-12-10T14:18:04.445Z,64.18
2022-12-10T14:20:40.232Z,64.05
2022-12-10T14:23:46.379Z,64.25
2022-12-10T14:26:21.468Z,64.54
2022-12-10T14:28:59.213Z,65.06
2022-12-10T14:31:52.853Z,65.03
2022-12-10T14:34:29.702Z,64.69
2022-12-10T14:37:07.221Z,64.38
2022-12-10T14:39:42.278Z,64.24
2022-12-10T14:42:18.815Z,64.31
2022-12-10T14:45:01.621Z,64.34
2022-12-10T14:47:46.861Z,64.42
2022-12-10T14:50:21.442Z,64.31
2022-12-10T14:52:55.682Z,64.30
2022-12-10T14:55:29.210Z,64.31
2022-12-10T14:58:05.490Z,64.35
2022-12-10T15:00:37.773Z,64.62
2022-12-10T15:03:20.356Z,64.59
2022-12-10T15:06:00.546Z,64.60
2022-12-10T15:08:33.307Z,65.26
2022-12-10T15:11:06.777Z,65.20
2022-12-10T15:13:47.669Z,64.97
2022-12-10T15:16:30.544Z,64.77
2022-12-10T15:19:18.328Z,64.74
2022-12-10T15:21:52.057Z,64.93
2022-12-10T15:24:30.159Z,64.78
2022-12-10T15:27:02.559Z,64.52
2022-12-10T15:29:38.039Z,64.37
2022-12-10T15:32:18.490Z,64.35
2022-12-10T15:34:55.589Z,64.26
2022-12-10T15:37:30.261Z,64.09
2022-12-10T15:40:05.575Z,64.09
2022-12-10T15:42:43.640Z,63.97
2022-12-10T15:45:26.969Z,63.97
2022-12-10T15:48:00.949Z,64.02
2022-12-10T15:50:33.321Z,63.77
2022-12-10T15:53:05.775Z,63.26
2022-12-10T15:55:38.280Z,63.16
2022-12-10T15:58:14.847Z,63.46
2022-12-10T16:00:47.882Z,62.46
2022-12-10T16:03:20.775Z,62.38
2022-12-10T16:05:52.850Z,62.13
2022-12-10T16:08:28.140Z,62.25
2022-12-10T16:11:05.453Z,62.96
2022-12-10T16:13:41.410Z,63.34
2022-12-10T16:16:14.549Z,63.04
2022-12-10T16:18:48.079Z,62.70
2022-12-10T16:21:20.523Z,62.45
2022-12-10T16:23:53.991Z,62.21
2022-12-10T16:26:26.404Z,62.05
2022-12-10T16:28:58.705Z,61.92
2022-12-10T16:31:30.991Z,61.02
2022-12-10T16:34:03.375Z,60.68
2022-12-10T16:36:37.238Z,60.67
2022-12-10T16:39:10.388Z,60.92
2022-12-10T16:41:42.920Z,61.14
2022-12-10T16:44:15.276Z,60.74
2022-12-10T16:46:47.553Z,60.89
2022-12-10T16:49:19.822Z,61.15
2022-12-10T16:51:51.956Z,61.43
2022-12-10T16:54:24.467Z,61.13
2022-12-10T16:56:56.785Z,61.34
2022-12-10T16:59:29.356Z,61.63
2022-12-10T17:02:01.645Z,61.77
2022-12-10T17:04:34.016Z,62.09
2022-12-10T17:07:06.173Z,62.33
2022-12-10T17:09:38.697Z,62.38
2022-12-10T17:12:11.860Z,62.75
2022-12-10T17:14:47.794Z,62.74
2022-12-10T17:17:19.936Z,62.29
2022-12-10T17:19:52.260Z,62.15
2022-12-10T17:22:24.437Z,62.54
2022-12-10T17:24:56.927Z,62.55
2022-12-10T17:27:30.402Z,62.51
2022-12-10T17:30:05.930Z,62.82
2022-12-10T17:32:38.056Z,63.02
2022-12-10T17:35:11.429Z,63.21
2022-12-10T17:37:44.066Z,63.34
2022-12-10T17:40:19.976Z,63.39
2022-12-10T17:42:52.357Z,63.25
2022-12-10T17:45:24.865Z,63.47
2022-12-10T17:47:57.016Z,63.36
2022-12-10T17:50:33.991Z,63.44
2022-12-10T17:53:10.637Z,63.76
2022-12-10T17:55:48.254Z,64.02
2022-12-10T17:58:24.145Z,63.93
2022-12-10T18:00:57.290Z,63.89
2022-12-10T18:03:29.522Z,64.17
2022-12-10T18:06:01.780Z,63.83
2022-12-10T18:08:33.947Z,63.69
2022-12-10T18:11:06.187Z,64.05
2022-12-10T18:13:38.928Z,64.11
2022-12-10T18:16:15.263Z,63.62
2022-12-10T18:18:47.690Z,64.06
2022-12-10T18:21:29.777Z,64.15
2022-12-10T18:24:04.862Z,63.53
2022-12-10T18:26:37.883Z,63.93
2022-12-10T18:29:14.911Z,63.81
2022-12-10T18:31:47.627Z,64.12
2022-12-10T18:34:20.221Z,64.38
2022-12-10T18:36:52.543Z,64.06
2022-12-10T18:39:27.361Z,63.72
2022-12-10T18:41:59.923Z,63.72
2022-12-10T18:44:32.922Z,63.81
2022-12-10T18:47:05.266Z,64.14
2022-12-10T18:49:38.372Z,63.81
2022-12-10T18:52:11.601Z,63.98
2022-12-10T18:54:43.762Z,63.76
2022-12-10T18:57:34.646Z,63.70
2022-12-10T19:00:14.734Z,63.92
2022-12-10T19:02:48.030Z,63.44
2022-12-10T19:05:20.848Z,63.55
2022-12-10T19:07:53.450Z,63.32
2022-12-10T19:10:26.807Z,63.55
2022-12-10T19:12:59.362Z,63.55
2022-12-10T19:15:31.741Z,63.75
2022-12-10T19:18:04.587Z,63.53
2022-12-10T19:20:36.859Z,63.30
2022-12-10T19:23:09.170Z,63.39
2022-12-10T19:25:41.772Z,63.14
2022-12-10T19:28:19.529Z,63.42
2022-12-10T19:30:52.662Z,63.61
2022-12-10T19:33:25.228Z,63.45
2022-12-10T19:35:57.420Z,63.96
2022-12-10T19:38:29.685Z,63.49
2022-12-10T19:41:02.662Z,63.60
2022-12-10T19:43:34.806Z,63.52
2022-12-10T19:46:16.822Z,63.28
2022-12-10T19:48:49.891Z,62.98
2022-12-10T19:51:24.640Z,62.78
2022-12-10T19:53:56.915Z,62.84
2022-12-10T19:56:31.780Z,63.12
2022-12-10T19:59:11.287Z,63.21
2022-12-10T20:01:46.916Z,63.20
2022-12-10T20:04:20.633Z,63.37
2022-12-10T20:06:52.941Z,63.66
2022-12-10T20:09:28.329Z,63.41
2022-12-10T20:12:00.660Z,63.12
2022-12-10T20:14:33.165Z,62.99
2022-12-10T20:17:06.864Z,62.91
2022-12-10T20:19:39.398Z,63.23
2022-12-10T20:22:12.997Z,63.15
2022-12-10T20:24:45.372Z,63.34
2022-12-10T20:27:18.413Z,63.29
2022-12-10T20:29:51.433Z,63.73
2022-12-10T20:32:24.341Z,63.57
2022-12-10T20:34:56.642Z,63.47
2022-12-10T20:37:29.906Z,63.95
2022-12-10T20:40:30.352Z,63.81
2022-12-10T20:42:54.484Z,64.08
2022-12-10T20:45:26.711Z,64.27
2022-12-10T20:48:00.932Z,63.95
2022-12-10T20:50:33.820Z,64.30
2022-12-10T20:53:07.436Z,64.74
2022-12-10T20:55:40.784Z,65.21
2022-12-10T20:58:13.557Z,64.99
2022-12-10T21:00:46.135Z,64.90
2022-12-10T21:03:18.382Z,65.12
2022-12-10T21:05:50.852Z,65.50
2022-12-10T21:08:23.604Z,65.41
2022-12-10T21:10:57.079Z,65.16
2022-12-10T21:13:30.953Z,65.11
2022-12-10T21:16:05.136Z,65.26
2022-12-10T21:18:37.292Z,65.16
2022-12-10T21:21:12.649Z,64.80
2022-12-10T21:23:45.355Z,65.20
2022-12-10T21:26:18.043Z,65.02
2022-12-10T21:28:50.173Z,65.21
2022-12-10T21:31:26.373Z,65.03
2022-12-10T21:33:58.799Z,65.10
2022-12-10T21:36:31.323Z,64.82
2022-12-10T21:39:04.531Z,64.78
2022-12-10T21:41:54.317Z,64.49
2022-12-10T21:44:26.749Z,64.06
2022-12-10T21:46:59.054Z,64.08
2022-12-10T21:49:31.325Z,64.22
2022-12-10T21:52:03.707Z,64.28
2022-12-10T21:54:35.895Z,64.10
2022-12-10T21:57:08.323Z,64.40
2022-12-10T21:59:41.120Z,64.61
2022-12-10T22:02:14.015Z,64.36
2022-12-10T22:04:46.613Z,64.53
2022-12-10T22:07:19.056Z,64.43
2022-12-10T22:09:51.610Z,64.19
2022-12-10T22:12:23.899Z,64.34
2022-12-10T22:14:56.742Z,64.31
2022-12-10T22:17:29.000Z,64.31
2022-12-10T22:20:01.660Z,63.56
2022-12-10T22:22:34.905Z,63.58
2022-12-10T22:25:08.368Z,63.86
2022-12-10T22:27:42.019Z,63.48
2022-12-10T22:30:16.074Z,63.84
2022-12-10T22:32:50.176Z,63.82
2022-12-10T22:35:22.756Z,63.92
2022-12-10T22:37:55.379Z,64.12
2022-12-10T22:40:28.170Z,64.23
2022-12-10T22:43:20.125Z,64.00
2022-12-10T22:45:56.663Z,64.19
2022-12-10T22:48:29.727Z,64.15
2022-12-10T22:51:07.334Z,64.10
2022-12-10T22:53:40.314Z,64.24
2022-12-10T22:56:15.425Z,64.38
2022-12-10T22:58:53.715Z,64.42
2022-12-10T23:01:27.543Z,64.26
2022-12-10T23:03:59.987Z,64.24
2022-12-10T23:06:32.091Z,64.19
2022-12-10T23:09:04.559Z,64.01
2022-12-10T23:11:36.917Z,63.91
2022-12-10T23:14:09.282Z,64.14
2022-12-10T23:16:44.001Z,64.32
2022-12-10T23:19:16.916Z,64.42
2022-12-10T23:21:49.111Z,65.04
2022-12-10T23:24:22.268Z,64.65
2022-12-10T23:26:54.959Z,64.51
2022-12-10T23:29:27.956Z,64.55
2022-12-10T23:32:00.211Z,64.27
2022-12-10T23:34:36.787Z,64.20
2022-12-10T23:37:10.309Z,63.93
2022-12-10T23:39:43.644Z,64.27
2022-12-10T23:42:16.091Z,64.22
2022-12-10T23:44:50.749Z,63.86
2022-12-10T23:47:21.406Z,63.84
2022-12-10T23:49:53.863Z,63.82
2022-12-10T23:52:26.208Z,64.07
2022-12-10T23:54:58.571Z,63.92
2022-12-10T23:57:30.761Z,63.88
